Time;durP1;ratioP1;P1;durP2;ratioP2;P2;SDS_P1;SDS_P2;PMS_P1;PMS_P2;Temp;Humidity;BMP_temperature;BMP_pressure;BME280_temperature;BME280_humidity;BME280_pressure;Samples;Min_cycle;Max_cycle;Signal;HPM_P1;HPM_P2
2023/07/14 00:00:20;;;;;;;15.32;7.32;;;;;;;;;;4993641;28;20026;-74
2023/07/14 00:02:47;;;;;;;16.35;8.07;;;;;;;;;;4993267;28;20400;-74
2023/07/14 00:05:37;;;;;;;14.25;7.65;;;;;;;;;;4993236;28;20014;-74
2023/07/14 00:08:03;;;;;;;17.77;7.53;;;;;;;;;;4990338;28;20066;-74
2023/07/14 00:10:36;;;;;;;14.15;6.72;;;;;;;;;;4993283;28;20018;-74
2023/07/14 00:13:03;;;;;;;13.88;6.82;;;;;;;;;;4992018;28;20058;-74
2023/07/14 00:15:30;;;;;;;14.35;6.80;;;;;;;;;;4993204;28;20030;-74
2023/07/14 00:18:00;;;;;;;12.68;7.22;;;;;;;;;;4993151;28;20042;-74
2023/07/14 00:20:28;;;;;;;16.10;6.68;;;;;;;;;;4993220;28;20558;-74
2023/07/14 00:22:55;;;;;;;12.32;6.65;;;;;;;;;;4993189;28;20101;-74
2023/07/14 00:25:22;;;;;;;14.82;7.03;;;;;;;;;;4993130;28;20018;-74
2023/07/14 00:27:48;;;;;;;9.52;5.97;;;;;;;;;;4993148;28;20402;-74
2023/07/14 00:30:25;;;;;;;14.88;7.40;;;;;;;;;;4992429;28;20049;-74
2023/07/14 00:32:53;;;;;;;11.35;6.97;;;;;;;;;;4993136;28;20035;-74
2023/07/14 00:35:22;;;;;;;12.70;7.50;;;;;;;;;;4993053;28;20385;-74
2023/07/14 00:37:49;;;;;;;12.70;6.88;;;;;;;;;;4993167;28;20026;-74
2023/07/14 00:40:20;;;;;;;14.35;7.28;;;;;;;;;;4993148;28;20022;-74
2023/07/14 00:42:48;;;;;;;15.63;7.47;;;;;;;;;;4992992;28;20105;-74
2023/07/14 00:45:17;;;;;;;10.63;6.20;;;;;;;;;;4993056;28;20030;-74
2023/07/14 00:47:43;;;;;;;15.45;6.40;;;;;;;;;;4993039;28;20389;-74
2023/07/14 00:50:16;;;;;;;10.63;6.38;;;;;;;;;;4993018;28;20469;-74
2023/07/14 00:52:42;;;;;;;11.13;6.55;;;;;;;;;;4992925;28;20037;-74
2023/07/14 00:55:25;;;;;;;11.65;6.55;;;;;;;;;;4992908;28;20014;-74
2023/07/14 00:57:55;;;;;;;12.98;6.35;;;;;;;;;;4992878;28;20027;-74
2023/07/14 01:00:26;;;;;;;11.00;5.45;;;;;;;;;;4992870;28;20145;-74
2023/07/14 01:02:52;;;;;;;13.18;6.40;;;;;;;;;;4992857;28;20054;-74
2023/07/14 01:05:18;;;;;;;12.55;5.95;;;;;;;;;;4992796;28;20057;-74
2023/07/14 01:07:45;;;;;;;12.68;6.32;;;;;;;;;;4992865;28;20026;-74
2023/07/14 01:10:13;;;;;;;13.38;6.65;;;;;;;;;;4991486;28;20413;-74
2023/07/14 01:12:41;;;;;;;11.40;6.82;;;;;;;;;;4991415;28;20066;-74
2023/07/14 01:15:07;;;;;;;13.25;6.78;;;;;;;;;;4992797;28;20089;-74
2023/07/14 01:17:37;;;;;;;16.60;6.47;;;;;;;;;;4992672;28;20023;-74
2023/07/14 01:20:08;;;;;;;12.45;8.00;;;;;;;;;;4992696;28;20065;-74
2023/07/14 01:22:47;;;;;;;12.75;6.70;;;;;;;;;;4992785;28;20025;-74
2023/07/14 01:25:17;;;;;;;14.15;6.50;;;;;;;;;;4992727;28;20057;-74
2023/07/14 01:27:46;;;;;;;15.63;6.82;;;;;;;;;;4992664;28;20380;-74
2023/07/14 01:30:12;;;;;;;12.75;6.70;;;;;;;;;;4992853;28;20029;-74
2023/07/14 01:32:40;;;;;;;10.80;6.32;;;;;;;;;;4992549;28;20026;-74
2023/07/14 01:35:07;;;;;;;12.75;6.65;;;;;;;;;;4992566;28;20422;-74
2023/07/14 01:37:39;;;;;;;14.38;7.10;;;;;;;;;;4992883;28;20430;-74
2023/07/14 01:40:06;;;;;;;13.95;6.00;;;;;;;;;;4993105;28;20483;-74
2023/07/14 01:42:33;;;;;;;15.43;6.88;;;;;;;;;;4996174;28;20101;-74
2023/07/14 01:45:00;;;;;;;12.30;6.55;;;;;;;;;;4996159;28;20065;-74
2023/07/14 01:47:30;;;;;;;12.48;6.40;;;;;;;;;;4996094;28;20026;-74
2023/07/14 01:49:57;;;;;;;13.63;7.25;;;;;;;;;;4996032;28;20531;-74
2023/07/14 01:52:25;;;;;;;13.43;6.93;;;;;;;;;;4995975;28;20021;-74
2023/07/14 01:54:54;;;;;;;15.73;6.55;;;;;;;;;;4995941;28;20019;-74
2023/07/14 01:57:22;;;;;;;13.45;6.40;;;;;;;;;;4996108;28;20030;-74
2023/07/14 01:59:51;;;;;;;12.95;6.40;;;;;;;;;;4995801;28;20469;-74
2023/07/14 02:02:24;;;;;;;15.77;7.32;;;;;;;;;;4995742;28;20022;-74
2023/07/14 02:04:50;;;;;;;18.67;7.00;;;;;;;;;;4995824;28;20477;-74
2023/07/14 02:07:17;;;;;;;14.82;6.82;;;;;;;;;;4995582;28;20027;-74
2023/07/14 02:09:43;;;;;;;12.13;5.90;;;;;;;;;;4995709;28;20026;-74
2023/07/14 02:12:12;;;;;;;16.45;6.82;;;;;;;;;;4995738;28;20018;-74
2023/07/14 02:14:50;;;;;;;16.48;6.38;;;;;;;;;;4994394;28;20055;-74
2023/07/14 02:17:27;;;;;;;14.65;6.65;;;;;;;;;;4995563;28;20026;-74
2023/07/14 02:19:54;;;;;;;14.73;6.43;;;;;;;;;;4995396;28;20605;-74
2023/07/14 02:22:21;;;;;;;13.65;6.82;;;;;;;;;;4995486;28;20060;-74
2023/07/14 02:24:48;;;;;;;12.65;7.35;;;;;;;;;;4995429;28;20068;-74
2023/07/14 02:27:14;;;;;;;16.60;6.90;;;;;;;;;;4995390;28;20049;-74
2023/07/14 02:29:40;;;;;;;15.02;7.00;;;;;;;;;;4995430;28;20030;-74
2023/07/14 02:32:12;;;;;;;13.93;6.95;;;;;;;;;;4995502;28;20026;-74
2023/07/14 02:34:41;;;;;;;14.50;6.93;;;;;;;;;;4995292;28;20088;-74
2023/07/14 02:37:32;;;;;;;13.23;7.43;;;;;;;;;;4995176;28;20440;-74
2023/07/14 02:40:00;;;;;;;14.43;7.53;;;;;;;;;;4995088;28;20041;-74
2023/07/14 02:42:26;;;;;;;15.40;7.47;;;;;;;;;;4995324;28;20025;-74
2023/07/14 02:44:52;;;;;;;14.05;8.32;;;;;;;;;;4995306;28;20030;-74
2023/07/14 02:47:21;;;;;;;14.57;8.20;;;;;;;;;;4994930;28;20034;-74
2023/07/14 02:49:48;;;;;;;17.70;8.27;;;;;;;;;;4994894;28;20106;-74
2023/07/14 02:52:14;;;;;;;18.25;8.63;;;;;;;;;;4994472;28;20018;-74
2023/07/14 02:54:41;;;;;;;15.15;7.22;;;;;;;;;;4994860;28;20065;-74
2023/07/14 02:57:07;;;;;;;18.13;8.60;;;;;;;;;;4995084;28;20109;-74
2023/07/14 02:59:33;;;;;;;15.40;8.63;;;;;;;;;;4994527;28;20066;-74
2023/07/14 03:01:59;;;;;;;16.73;8.45;;;;;;;;;;4994912;28;20338;-74
2023/07/14 03:04:25;;;;;;;14.20;8.30;;;;;;;;;;4994937;28;20449;-74
2023/07/14 03:06:51;;;;;;;15.70;8.18;;;;;;;;;;4994586;28;20061;-74
2023/07/14 03:09:17;;;;;;;15.18;8.25;;;;;;;;;;4994534;28;20037;-74
2023/07/14 03:11:43;;;;;;;18.23;7.82;;;;;;;;;;4994506;28;20081;-74
2023/07/14 03:14:10;;;;;;;16.65;7.72;;;;;;;;;;5006623;28;20053;-74
2023/07/14 03:16:36;;;;;;;14.77;7.60;;;;;;;;;;5013963;28;20461;-74
2023/07/14 03:19:03;;;;;;;14.93;7.80;;;;;;;;;;5013901;28;20037;-74
2023/07/14 03:21:29;;;;;;;15.10;8.15;;;;;;;;;;5013930;28;20022;-74
2023/07/14 03:24:02;;;;;;;13.60;7.72;;;;;;;;;;5014168;28;20033;-74
2023/07/14 03:26:28;;;;;;;16.67;8.10;;;;;;;;;;5013870;28;20045;-74
2023/07/14 03:28:54;;;;;;;13.25;7.30;;;;;;;;;;5013432;28;20034;-74
2023/07/14 03:31:20;;;;;;;13.43;7.47;;;;;;;;;;5013628;28;20040;-74
2023/07/14 03:33:46;;;;;;;13.02;7.40;;;;;;;;;;5013510;28;20018;-74
2023/07/14 03:36:13;;;;;;;16.95;7.45;;;;;;;;;;5013702;28;20480;-74
2023/07/14 03:38:45;;;;;;;16.88;7.68;;;;;;;;;;5013550;28;20041;-74
2023/07/14 03:41:14;;;;;;;17.23;7.07;;;;;;;;;;5013922;28;20026;-74
2023/07/14 03:43:40;;;;;;;13.98;6.95;;;;;;;;;;5013505;28;20364;-74
2023/07/14 03:46:07;;;;;;;11.63;6.43;;;;;;;;;;5013397;28;20357;-74
2023/07/14 03:48:33;;;;;;;11.80;5.95;;;;;;;;;;5013775;28;20034;-74
2023/07/14 03:51:03;;;;;;;17.30;7.00;;;;;;;;;;5013353;28;20111;-74
2023/07/14 03:53:29;;;;;;;10.95;5.78;;;;;;;;;;5013320;28;20036;-74
2023/07/14 03:55:55;;;;;;;11.93;5.82;;;;;;;;;;5013343;28;20030;-74
2023/07/14 03:58:21;;;;;;;13.15;6.10;;;;;;;;;;5013457;28;20121;-73
2023/07/14 04:00:48;;;;;;;18.23;5.88;;;;;;;;;;5013256;28;20033;-74
2023/07/14 04:03:14;;;;;;;7.80;4.40;;;;;;;;;;5013271;28;20029;-74
2023/07/14 04:05:44;;;;;;;12.30;5.00;;;;;;;;;;5012628;28;20511;-74
2023/07/14 04:08:10;;;;;;;8.15;4.57;;;;;;;;;;5013106;28;20073;-74
2023/07/14 04:10:36;;;;;;;13.05;5.13;;;;;;;;;;5012745;28;20025;-74
2023/07/14 04:13:02;;;;;;;12.32;4.82;;;;;;;;;;5011584;28;20042;-74
2023/07/14 04:15:28;;;;;;;9.23;4.70;;;;;;;;;;5013000;28;20030;-74
2023/07/14 04:17:54;;;;;;;10.02;4.55;;;;;;;;;;5012899;28;20030;-74
2023/07/14 04:20:20;;;;;;;11.60;5.10;;;;;;;;;;5012787;28;20026;-74
2023/07/14 04:22:47;;;;;;;12.73;5.25;;;;;;;;;;5012889;28;20079;-74
2023/07/14 04:25:13;;;;;;;11.32;4.88;;;;;;;;;;5012951;28;20034;-74
2023/07/14 04:27:39;;;;;;;11.63;4.93;;;;;;;;;;5013117;28;20479;-74
2023/07/14 04:30:08;;;;;;;13.90;5.25;;;;;;;;;;5012827;28;20036;-74
2023/07/14 04:32:34;;;;;;;11.18;4.70;;;;;;;;;;5013071;28;20013;-74
2023/07/14 04:35:00;;;;;;;7.07;5.18;;;;;;;;;;5012774;28;20026;-74
2023/07/14 04:37:26;;;;;;;7.72;4.18;;;;;;;;;;5011452;28;20061;-74
2023/07/14 04:39:52;;;;;;;8.55;4.55;;;;;;;;;;5012924;28;20113;-74
2023/07/14 04:42:18;;;;;;;11.50;5.15;;;;;;;;;;5012643;28;20133;-74
2023/07/14 04:44:44;;;;;;;9.80;4.88;;;;;;;;;;5012626;28;20034;-74
2023/07/14 04:47:10;;;;;;;10.20;5.00;;;;;;;;;;5012252;28;20026;-74
2023/07/14 04:49:37;;;;;;;10.65;4.53;;;;;;;;;;5012522;28;20428;-74
2023/07/14 04:52:03;;;;;;;7.95;4.20;;;;;;;;;;5012502;28;20025;-73
2023/07/14 04:54:29;;;;;;;9.18;4.50;;;;;;;;;;5012634;28;20026;-74
2023/07/14 04:56:55;;;;;;;8.38;4.50;;;;;;;;;;5012427;28;20159;-74
2023/07/14 04:59:21;;;;;;;9.70;4.32;;;;;;;;;;5012624;28;20038;-74
2023/07/14 05:01:47;;;;;;;11.88;5.00;;;;;;;;;;5012267;28;20030;-74
2023/07/14 05:04:13;;;;;;;10.10;4.07;;;;;;;;;;5010961;28;20030;-74
2023/07/14 05:06:39;;;;;;;8.88;4.55;;;;;;;;;;5012490;28;20029;-74
2023/07/14 05:09:06;;;;;;;8.25;5.13;;;;;;;;;;5012557;28;20354;-75
2023/07/14 05:11:32;;;;;;;8.65;4.45;;;;;;;;;;5012454;28;20030;-75
2023/07/14 05:13:58;;;;;;;8.57;4.72;;;;;;;;;;5010958;28;20092;-74
2023/07/14 05:16:24;;;;;;;9.60;4.53;;;;;;;;;;5014627;28;20076;-75
2023/07/14 05:18:50;;;;;;;8.68;4.25;;;;;;;;;;5016304;28;20545;-75
2023/07/14 05:21:18;;;;;;;7.22;4.13;;;;;;;;;;5016152;28;20617;-75
2023/07/14 05:23:44;;;;;;;8.77;4.40;;;;;;;;;;5016395;28;20032;-74
2023/07/14 05:26:11;;;;;;;11.18;4.50;;;;;;;;;;5015967;28;20101;-75
2023/07/14 05:28:37;;;;;;;8.90;3.90;;;;;;;;;;5016109;28;20076;-74
2023/07/14 05:31:05;;;;;;;8.05;4.22;;;;;;;;;;5016477;28;20053;-72
2023/07/14 05:33:31;;;;;;;9.05;3.97;;;;;;;;;;5015780;28;20088;-72
2023/07/14 05:35:58;;;;;;;8.85;4.30;;;;;;;;;;5008971;28;20513;-74
2023/07/14 05:38:24;;;;;;;7.95;4.07;;;;;;;;;;5015006;28;20488;-74
2023/07/14 05:40:52;;;;;;;10.48;3.60;;;;;;;;;;5002546;28;20030;-75
2023/07/14 05:43:18;;;;;;;8.73;3.67;;;;;;;;;;5001963;28;20105;-74
2023/07/14 05:45:47;;;;;;;7.07;3.65;;;;;;;;;;5004721;28;20489;-74
2023/07/14 05:48:14;;;;;;;6.22;3.50;;;;;;;;;;5010422;28;20026;-74
2023/07/14 05:50:40;;;;;;;7.85;3.75;;;;;;;;;;5015868;28;20022;-74
2023/07/14 05:53:06;;;;;;;5.60;3.38;;;;;;;;;;5015340;28;20053;-74
2023/07/14 05:55:32;;;;;;;9.43;3.88;;;;;;;;;;5007458;28;20034;-74
2023/07/14 05:57:58;;;;;;;10.77;3.55;;;;;;;;;;4995628;28;20073;-74
2023/07/14 06:00:25;;;;;;;6.00;3.17;;;;;;;;;;5009027;28;20025;-74
2023/07/14 06:02:51;;;;;;;6.38;3.28;;;;;;;;;;5015878;28;20028;-74
2023/07/14 06:05:19;;;;;;;5.25;3.00;;;;;;;;;;5015237;28;20030;-74
2023/07/14 06:07:45;;;;;;;8.30;3.00;;;;;;;;;;5012009;28;20369;-74
2023/07/14 06:10:12;;;;;;;6.00;3.30;;;;;;;;;;5005439;28;20519;-74
2023/07/14 06:12:38;;;;;;;8.13;3.55;;;;;;;;;;5027313;28;20045;-74
2023/07/14 06:15:05;;;;;;;5.50;3.20;;;;;;;;;;5034784;28;20045;-73
2023/07/14 06:17:31;;;;;;;10.60;4.10;;;;;;;;;;5000066;28;20022;-74
2023/07/14 06:19:57;;;;;;;6.82;3.60;;;;;;;;;;4995211;28;20042;-74
2023/07/14 06:22:23;;;;;;;6.68;3.45;;;;;;;;;;4995371;28;20065;-74
2023/07/14 06:24:49;;;;;;;6.22;3.10;;;;;;;;;;5002735;28;20026;-74
2023/07/14 06:27:16;;;;;;;6.70;3.40;;;;;;;;;;5014045;28;20029;-74
2023/07/14 06:29:43;;;;;;;7.15;3.05;;;;;;;;;;5014942;28;20053;-75
2023/07/14 06:32:09;;;;;;;5.07;2.90;;;;;;;;;;5014959;28;20022;-76
2023/07/14 06:34:35;;;;;;;8.18;2.90;;;;;;;;;;5014628;28;20030;-74
2023/07/14 06:37:01;;;;;;;7.80;3.15;;;;;;;;;;5014791;28;20476;-75
2023/07/14 06:39:27;;;;;;;8.55;3.40;;;;;;;;;;5014436;28;20560;-75
2023/07/14 06:41:53;;;;;;;17.08;3.40;;;;;;;;;;5014861;28;20022;-75
2023/07/14 06:44:25;;;;;;;5.13;3.08;;;;;;;;;;5014482;28;20091;-75
2023/07/14 06:46:51;;;;;;;7.95;3.00;;;;;;;;;;5013173;28;20121;-76
2023/07/14 06:49:17;;;;;;;6.90;3.05;;;;;;;;;;5014420;28;20536;-76
2023/07/14 06:51:44;;;;;;;8.40;3.20;;;;;;;;;;5008450;28;20421;-75
2023/07/14 06:54:10;;;;;;;7.45;3.05;;;;;;;;;;4994741;28;20408;-74
2023/07/14 06:56:36;;;;;;;8.98;3.47;;;;;;;;;;4994778;28;20516;-74
2023/07/14 06:59:02;;;;;;;8.65;2.90;;;;;;;;;;4994984;28;20031;-74
2023/07/14 07:01:28;;;;;;;9.43;3.47;;;;;;;;;;4994682;28;20103;-74
2023/07/14 07:03:54;;;;;;;7.05;3.13;;;;;;;;;;4994874;28;20432;-74
2023/07/14 07:06:20;;;;;;;5.80;3.20;;;;;;;;;;4995558;28;20027;-73
2023/07/14 07:08:47;;;;;;;8.32;3.75;;;;;;;;;;4995758;28;20026;-74
2023/07/14 07:11:13;;;;;;;11.38;3.63;;;;;;;;;;4995521;28;20108;-74
2023/07/14 07:13:40;;;;;;;5.90;3.17;;;;;;;;;;4994105;28;20105;-74
2023/07/14 07:16:06;;;;;;;9.93;3.42;;;;;;;;;;5006136;28;20408;-75
2023/07/14 07:18:32;;;;;;;8.40;3.80;;;;;;;;;;5013809;28;20354;-75
2023/07/14 07:20:58;;;;;;;9.23;3.53;;;;;;;;;;5013888;28;20365;-75
2023/07/14 07:23:24;;;;;;;6.80;3.80;;;;;;;;;;5013182;28;20037;-74
2023/07/14 07:25:53;;;;;;;8.93;3.75;;;;;;;;;;5013737;28;20026;-74
2023/07/14 07:28:19;;;;;;;6.13;3.37;;;;;;;;;;5004289;28;20465;-74
2023/07/14 07:30:46;;;;;;;4.68;3.10;;;;;;;;;;5015132;28;20021;-74
2023/07/14 07:33:13;;;;;;;9.43;3.60;;;;;;;;;;5013461;28;20129;-74
2023/07/14 07:35:40;;;;;;;10.27;3.53;;;;;;;;;;5013641;28;20121;-74
2023/07/14 07:38:10;;;;;;;5.15;2.97;;;;;;;;;;5013254;28;20696;-74
2023/07/14 07:40:36;;;;;;;4.45;2.40;;;;;;;;;;5014090;28;20026;-75
2023/07/14 07:43:02;;;;;;;4.47;3.00;;;;;;;;;;5013545;28;20044;-75
2023/07/14 07:45:28;;;;;;;4.60;3.05;;;;;;;;;;5013711;28;20358;-75
2023/07/14 07:47:55;;;;;;;6.50;3.50;;;;;;;;;;5014306;28;20076;-74
2023/07/14 07:50:21;;;;;;;6.18;2.78;;;;;;;;;;5014891;28;20424;-74
2023/07/14 07:52:47;;;;;;;4.13;2.92;;;;;;;;;;5014120;28;20022;-74
2023/07/14 07:55:13;;;;;;;4.47;2.70;;;;;;;;;;5013207;28;20454;-74
2023/07/14 07:57:40;;;;;;;5.25;2.55;;;;;;;;;;5013052;28;20033;-75
2023/07/14 08:00:07;;;;;;;6.40;2.80;;;;;;;;;;5013392;28;20041;-74
2023/07/14 08:02:35;;;;;;;5.63;2.50;;;;;;;;;;5013462;28;20020;-75
2023/07/14 08:05:02;;;;;;;5.50;2.78;;;;;;;;;;5013267;28;20129;-75
2023/07/14 08:07:28;;;;;;;5.82;2.67;;;;;;;;;;5012879;28;20021;-74
2023/07/14 08:09:54;;;;;;;5.07;2.70;;;;;;;;;;5014616;28;20041;-75
2023/07/14 08:12:21;;;;;;;5.97;3.00;;;;;;;;;;5016006;28;20096;-75
2023/07/14 08:14:51;;;;;;;6.97;2.80;;;;;;;;;;5011749;28;20049;-75
2023/07/14 08:17:17;;;;;;;5.25;2.50;;;;;;;;;;5013118;28;20049;-75
2023/07/14 08:19:45;;;;;;;5.63;3.05;;;;;;;;;;5013588;28;20105;-75
2023/07/14 08:22:11;;;;;;;4.80;2.50;;;;;;;;;;5013387;28;20018;-75
2023/07/14 08:24:37;;;;;;;3.40;2.20;;;;;;;;;;5013050;28;20460;-75
2023/07/14 08:27:03;;;;;;;5.22;2.80;;;;;;;;;;5012768;28;20030;-75
2023/07/14 08:29:29;;;;;;;5.07;2.92;;;;;;;;;;5013007;28;20041;-75
2023/07/14 08:31:55;;;;;;;4.22;2.95;;;;;;;;;;5012413;28;20026;-75
2023/07/14 08:34:22;;;;;;;5.35;2.88;;;;;;;;;;5012553;28;20026;-75
2023/07/14 08:36:48;;;;;;;5.13;2.83;;;;;;;;;;5012636;28;20381;-75
2023/07/14 08:39:15;;;;;;;5.00;2.72;;;;;;;;;;5012365;28;20061;-75
2023/07/14 08:41:45;;;;;;;6.25;2.65;;;;;;;;;;5012525;28;20517;-75
2023/07/14 08:44:38;;;;;;;7.80;3.33;;;;;;;;;;5012527;28;20114;-75
2023/07/14 08:47:04;;;;;;;5.03;2.70;;;;;;;;;;5009554;28;20038;-75
2023/07/14 08:49:30;;;;;;;5.85;2.80;;;;;;;;;;5012735;28;20105;-76
2023/07/14 08:52:03;;;;;;;4.63;2.80;;;;;;;;;;5015761;28;20030;-76
2023/07/14 08:54:38;;;;;;;5.53;3.00;;;;;;;;;;5016860;28;20061;-76
2023/07/14 08:57:05;;;;;;;5.10;2.75;;;;;;;;;;5016843;28;20113;-76
2023/07/14 08:59:36;;;;;;;6.47;3.10;;;;;;;;;;5016273;28;20030;-75
2023/07/14 09:02:04;;;;;;;5.07;2.95;;;;;;;;;;5016277;28;20111;-75
2023/07/14 09:04:34;;;;;;;7.28;2.72;;;;;;;;;;5016354;28;20064;-75
2023/07/14 09:07:01;;;;;;;6.50;2.42;;;;;;;;;;5016308;28;20396;-75
2023/07/14 09:09:31;;;;;;;6.82;2.80;;;;;;;;;;5016272;28;20052;-76
2023/07/14 09:12:15;;;;;;;6.45;3.40;;;;;;;;;;5016289;28;20072;-76
2023/07/14 09:14:55;;;;;;;6.70;3.33;;;;;;;;;;5014812;28;20053;-76
2023/07/14 09:17:22;;;;;;;7.07;3.65;;;;;;;;;;5016208;28;20396;-76
2023/07/14 09:19:53;;;;;;;5.80;3.28;;;;;;;;;;5016286;28;20030;-76
2023/07/14 09:22:25;;;;;;;8.48;3.30;;;;;;;;;;5016069;28;20041;-76
2023/07/14 09:24:52;;;;;;;7.25;3.10;;;;;;;;;;5015975;28;20057;-76
2023/07/14 09:27:26;;;;;;;5.20;3.50;;;;;;;;;;5016173;28;20045;-76
2023/07/14 09:29:53;;;;;;;6.65;3.70;;;;;;;;;;5016217;28;20080;-75
2023/07/14 09:32:19;;;;;;;6.53;3.33;;;;;;;;;;5015797;28;20105;-75
2023/07/14 09:34:53;;;;;;;6.70;3.08;;;;;;;;;;5016258;28;20691;-75
2023/07/14 09:37:26;;;;;;;6.53;3.17;;;;;;;;;;5016088;28;20022;-75
2023/07/14 09:39:55;;;;;;;8.57;3.90;;;;;;;;;;5016041;28;20105;-75
2023/07/14 09:42:25;;;;;;;9.57;4.03;;;;;;;;;;5015983;28;20018;-76
2023/07/14 09:44:58;;;;;;;5.43;3.45;;;;;;;;;;5015429;28;20022;-75
2023/07/14 09:47:24;;;;;;;6.70;3.35;;;;;;;;;;5015654;28;20527;-76
2023/07/14 09:49:57;;;;;;;9.02;3.67;;;;;;;;;;5015850;28;20061;-76
2023/07/14 09:52:25;;;;;;;8.00;3.53;;;;;;;;;;5015884;28;20558;-76
2023/07/14 09:54:52;;;;;;;7.82;3.60;;;;;;;;;;5015513;28;20030;-75
2023/07/14 09:57:19;;;;;;;9.15;3.95;;;;;;;;;;5015694;28;20025;-76
2023/07/14 09:59:55;;;;;;;7.45;3.75;;;;;;;;;;5015043;28;20030;-76
2023/07/14 10:02:26;;;;;;;6.07;3.40;;;;;;;;;;5015741;28;20053;-76
2023/07/14 10:04:55;;;;;;;6.93;3.45;;;;;;;;;;5015724;28;20017;-76
2023/07/14 10:07:27;;;;;;;6.35;3.80;;;;;;;;;;5015022;28;20022;-75
2023/07/14 10:09:57;;;;;;;8.32;3.40;;;;;;;;;;5014765;28;20033;-75
2023/07/14 10:12:23;;;;;;;5.20;3.33;;;;;;;;;;5013997;28;20022;-76
2023/07/14 10:14:53;;;;;;;6.53;4.30;;;;;;;;;;4995112;28;20042;-75
2023/07/14 10:17:24;;;;;;;9.85;4.10;;;;;;;;;;4995682;28;20023;-76
2023/07/14 10:19:51;;;;;;;7.95;4.10;;;;;;;;;;4995524;28;20030;-76
2023/07/14 10:22:23;;;;;;;5.45;3.70;;;;;;;;;;4994035;28;20335;-75
2023/07/14 10:24:56;;;;;;;9.93;3.88;;;;;;;;;;4995237;28;20026;-75
2023/07/14 10:27:37;;;;;;;7.88;4.18;;;;;;;;;;5006191;28;20527;-75
2023/07/14 10:30:06;;;;;;;7.22;3.78;;;;;;;;;;5014405;28;20049;-75
2023/07/14 10:32:32;;;;;;;;;;;;;;;;;;5015407;28;20105;-75
2023/07/14 10:35:03;;;;;;;7.35;3.65;;;;;;;;;;5014610;28;20360;-75
2023/07/14 10:37:33;;;;;;;6.03;3.63;;;;;;;;;;5014455;28;20034;-75
2023/07/14 10:40:00;;;;;;;9.88;3.80;;;;;;;;;;5014436;28;20034;-75
2023/07/14 10:42:30;;;;;;;7.45;3.70;;;;;;;;;;5014400;28;20547;-75
2023/07/14 10:44:57;;;;;;;7.18;4.00;;;;;;;;;;5014479;28;20030;-75
2023/07/14 10:47:26;;;;;;;6.75;4.05;;;;;;;;;;5014387;28;20026;-75
2023/07/14 10:50:00;;;;;;;8.63;3.85;;;;;;;;;;5014331;28;20058;-75
2023/07/14 10:52:26;;;;;;;10.73;4.03;;;;;;;;;;5012980;28;20034;-74
2023/07/14 10:54:55;;;;;;;5.97;4.20;;;;;;;;;;5014254;28;20453;-73
2023/07/14 10:57:40;;;;;;;7.22;4.18;;;;;;;;;;5014145;28;20026;-74
2023/07/14 11:00:26;;;;;;;7.88;4.50;;;;;;;;;;5013897;28;20034;-74
2023/07/14 11:03:11;;;;;;;9.00;4.55;;;;;;;;;;5003768;28;20084;-74
2023/07/14 11:05:38;;;;;;;7.78;4.47;;;;;;;;;;5014100;28;20022;-74
2023/07/14 11:08:05;;;;;;;10.60;4.88;;;;;;;;;;5012447;28;20026;-74
2023/07/14 11:10:50;;;;;;;10.57;5.07;;;;;;;;;;5013996;28;20049;-74
2023/07/14 11:13:41;;;;;;;6.75;5.25;;;;;;;;;;5012843;28;20037;-74
2023/07/14 11:16:09;;;;;;;8.23;4.97;;;;;;;;;;5013981;28;20045;-74
2023/07/14 11:18:56;;;;;;;7.20;5.03;;;;;;;;;;5013739;28;20112;-73
2023/07/14 11:21:27;;;;;;;7.43;4.82;;;;;;;;;;5014340;28;20516;-74
2023/07/14 11:24:11;;;;;;;10.15;5.50;;;;;;;;;;5014273;28;20026;-74
2023/07/14 11:26:43;;;;;;;7.05;4.70;;;;;;;;;;5014374;28;20033;-75
2023/07/14 11:29:13;;;;;;;11.82;5.70;;;;;;;;;;5014798;28;20033;-73
2023/07/14 11:31:51;;;;;;;7.45;5.72;;;;;;;;;;5014086;28;20049;-74
2023/07/14 11:34:39;;;;;;;7.75;5.88;;;;;;;;;;5013844;28;20109;-74
2023/07/14 11:37:15;;;;;;;9.52;6.13;;;;;;;;;;5013705;28;20036;-74
2023/07/14 11:39:41;;;;;;;8.90;5.60;;;;;;;;;;5012193;28;20619;-74
2023/07/14 11:42:19;;;;;;;8.10;5.80;;;;;;;;;;5013794;28;20465;-74
2023/07/14 11:44:46;;;;;;;10.13;5.78;;;;;;;;;;5013629;28;20064;-74
2023/07/14 11:47:18;;;;;;;11.13;6.03;;;;;;;;;;5012517;28;20061;-74
2023/07/14 11:49:44;;;;;;;10.52;5.78;;;;;;;;;;5013801;28;20057;-74
2023/07/14 11:52:20;;;;;;;11.32;6.07;;;;;;;;;;5013590;28;20018;-73
2023/07/14 11:54:52;;;;;;;8.60;4.90;;;;;;;;;;5014751;28;20029;-73
2023/07/14 11:57:18;;;;;;;13.60;5.22;;;;;;;;;;5013906;28;20105;-73
2023/07/14 12:00:04;;;;;;;10.75;6.00;;;;;;;;;;5013318;28;20045;-74
2023/07/14 12:02:30;;;;;;;11.25;6.28;;;;;;;;;;5013329;28;20026;-74
2023/07/14 12:05:01;;;;;;;12.85;5.60;;;;;;;;;;5003231;28;20161;-73
2023/07/14 12:07:27;;;;;;;10.27;6.13;;;;;;;;;;4993289;28;20031;-73
2023/07/14 12:09:57;;;;;;;8.02;5.50;;;;;;;;;;4993724;28;20034;-74
2023/07/14 12:12:23;;;;;;;9.13;6.20;;;;;;;;;;4993589;28;20131;-74
2023/07/14 12:14:50;;;;;;;11.63;6.25;;;;;;;;;;4990671;28;20092;-74
2023/07/14 12:17:35;;;;;;;11.52;5.93;;;;;;;;;;4991858;28;20619;-74
2023/07/14 12:20:05;;;;;;;8.63;5.38;;;;;;;;;;4993115;28;20038;-73
2023/07/14 12:22:38;;;;;;;10.32;5.28;;;;;;;;;;4993592;28;20019;-74
2023/07/14 12:25:10;;;;;;;9.20;5.38;;;;;;;;;;4992403;28;20080;-74
2023/07/14 12:27:36;;;;;;;8.90;5.50;;;;;;;;;;4993187;28;20098;-74
2023/07/14 12:30:14;;;;;;;10.32;6.28;;;;;;;;;;4993379;28;20030;-73
2023/07/14 12:32:40;;;;;;;9.25;6.47;;;;;;;;;;4993562;28;20474;-73
2023/07/14 12:35:13;;;;;;;10.57;5.75;;;;;;;;;;4993097;28;20018;-73
2023/07/14 12:37:39;;;;;;;9.35;6.25;;;;;;;;;;4994485;28;20033;-73
2023/07/14 12:40:10;;;;;;;13.20;6.65;;;;;;;;;;5008162;28;20160;-74
2023/07/14 12:42:40;;;;;;;8.52;6.85;;;;;;;;;;4993007;28;20105;-73
2023/07/14 12:45:06;;;;;;;9.30;6.85;;;;;;;;;;4993099;28;20022;-74
2023/07/14 12:47:32;;;;;;;12.25;7.10;;;;;;;;;;4992868;28;20030;-75
2023/07/14 12:49:59;;;;;;;13.18;7.47;;;;;;;;;;4993127;28;20034;-75
2023/07/14 12:52:33;;;;;;;8.30;6.10;;;;;;;;;;4993058;28;20029;-75
2023/07/14 12:55:03;;;;;;;11.27;6.85;;;;;;;;;;4993043;28;20030;-74
2023/07/14 12:57:31;;;;;;;10.23;6.40;;;;;;;;;;4993277;28;20365;-75
2023/07/14 12:59:57;;;;;;;9.50;6.85;;;;;;;;;;4993140;28;20062;-74
2023/07/14 13:02:24;;;;;;;9.98;6.60;;;;;;;;;;4993106;28;20030;-74
2023/07/14 13:04:51;;;;;;;12.57;7.90;;;;;;;;;;4992859;28;20019;-74
2023/07/14 13:07:20;;;;;;;11.68;8.23;;;;;;;;;;5000453;28;20034;-74
2023/07/14 13:09:57;;;;;;;12.80;9.27;;;;;;;;;;5012253;28;20405;-74
2023/07/14 13:12:23;;;;;;;14.48;8.38;;;;;;;;;;5012297;28;20054;-74
2023/07/14 13:14:51;;;;;;;16.42;8.32;;;;;;;;;;5011509;28;20056;-74
2023/07/14 13:17:22;;;;;;;9.82;8.05;;;;;;;;;;5012248;28;20033;-74
2023/07/14 13:19:48;;;;;;;12.70;8.32;;;;;;;;;;5012283;28;20030;-74
2023/07/14 13:22:19;;;;;;;14.07;8.82;;;;;;;;;;5012203;28;20033;-74
2023/07/14 13:24:55;;;;;;;15.57;8.40;;;;;;;;;;5012134;28;20081;-75
2023/07/14 13:27:21;;;;;;;15.82;8.98;;;;;;;;;;5012206;28;20034;-74
2023/07/14 13:29:56;;;;;;;10.73;8.35;;;;;;;;;;5012170;28;20547;-74
2023/07/14 13:32:24;;;;;;;12.32;7.97;;;;;;;;;;5012294;28;20097;-74
2023/07/14 13:35:13;;;;;;;11.73;7.38;;;;;;;;;;5012271;28;20037;-74
2023/07/14 13:37:39;;;;;;;15.38;8.52;;;;;;;;;;5014620;28;20026;-75
2023/07/14 13:40:17;;;;;;;15.30;8.77;;;;;;;;;;5014520;28;20120;-75
2023/07/14 13:42:48;;;;;;;17.52;8.98;;;;;;;;;;5015863;28;20062;-75
2023/07/14 13:45:17;;;;;;;11.98;8.02;;;;;;;;;;5005821;28;20018;-74
2023/07/14 13:47:45;;;;;;;12.38;7.18;;;;;;;;;;4996273;28;20413;-75
2023/07/14 13:50:12;;;;;;;13.35;8.18;;;;;;;;;;4995666;28;20034;-75
2023/07/14 13:52:38;;;;;;;12.80;7.47;;;;;;;;;;5011076;28;20030;-75
2023/07/14 13:55:11;;;;;;;9.52;6.53;;;;;;;;;;4995871;28;20439;-74
2023/07/14 13:57:38;;;;;;;12.07;6.63;;;;;;;;;;4996028;28;20026;-75
2023/07/14 14:00:05;;;;;;;9.63;5.97;;;;;;;;;;4995640;28;20038;-75
2023/07/14 14:02:31;;;;;;;11.07;5.85;;;;;;;;;;4995772;28;20018;-75
2023/07/14 14:04:57;;;;;;;8.93;5.90;;;;;;;;;;4995894;28;20501;-75
2023/07/14 14:07:23;;;;;;;7.88;5.25;;;;;;;;;;4995656;28;20043;-75
2023/07/14 14:09:49;;;;;;;8.15;4.55;;;;;;;;;;4995812;28;20026;-75
2023/07/14 14:12:16;;;;;;;7.72;4.50;;;;;;;;;;4995769;28;20019;-74
2023/07/14 14:14:42;;;;;;;9.93;4.85;;;;;;;;;;4994177;28;20042;-75
2023/07/14 14:17:35;;;;;;;8.80;4.80;;;;;;;;;;4995452;28;20015;-75
2023/07/14 14:20:02;;;;;;;9.23;5.10;;;;;;;;;;4995403;28;20370;-74
2023/07/14 14:22:28;;;;;;;7.82;5.38;;;;;;;;;;5006989;28;20034;-73
2023/07/14 14:24:55;;;;;;;9.98;5.05;;;;;;;;;;5014992;28;20018;-73
2023/07/14 14:27:21;;;;;;;7.70;4.68;;;;;;;;;;5015111;28;20065;-73
2023/07/14 14:29:46;;;;;;;7.78;5.55;;;;;;;;;;5014778;28;20465;-73
2023/07/14 14:32:15;;;;;;;6.70;5.22;;;;;;;;;;5014877;28;20030;-73
2023/07/14 14:34:42;;;;;;;8.95;5.22;;;;;;;;;;5015061;28;20022;-73
2023/07/14 14:37:11;;;;;;;8.07;4.75;;;;;;;;;;5014610;28;20030;-73
2023/07/14 14:39:39;;;;;;;8.00;4.75;;;;;;;;;;5014665;28;20038;-73
2023/07/14 14:42:05;;;;;;;11.13;6.13;;;;;;;;;;5014830;28;20053;-74
2023/07/14 14:44:31;;;;;;;8.52;5.43;;;;;;;;;;5014481;28;20030;-74
2023/07/14 14:46:58;;;;;;;10.30;5.68;;;;;;;;;;5014964;28;20044;-74